Aircraft
UPR1002 PR-BLA B737-800M
SBBR
Presidente Juscelino Kubitschek International Airport
SBCY
Marechal Rondon Airport
Pilot:: Claudenir
Aircraft:: 737-800 PAX BW HD
Alternate: SBCG
Network: ivao
FLIGHT DETAILS
Distance: 474nm Duration 01h 23m
Cruise Speed: Flight Level: 38000
Validation: Validated Type Charter
Flight Fuel
ZFW: 62207
Block Fuel/Initial FOB: 11577
Flight Fuel: 7409
Cargo
Passengers: 109
Cargo: 2719
ROUTE
ROUTE: UMSU1A SIREM LODOV MABMA BOKI1A
REMARKS:
DATE
Date: 26-09-04
Departure Time: 1611
Cargo: 2719
FLIGHT DETAILS
Crashed: No
Validator Comments: Validado por Rafael
Flight Rating: 95
LANDING ANALYSIS
Landing wind: 241º/10 kt
Landing heading: 354º
Landing VS:: -539 ft/min
Landing IAS:: 135 kt
Landing Force G: 1.3 G
Landing Bank: -1
Landing Pitch: -3
Landing Flaps: 100
Navigation Lights: ON
Landing Lights: ON
Beacon Lights: ON
Strobe Lights: ON
viserfly

ALTITUDE CHART

viserfly

MAIN EVENTS

DATE EVENT IAS ALTITUDE
2026-09-04 15:42:32 FLYacars version 1.3.6 0 3469
2026-09-04 15:45:32 Simulator Paused 0 3469
2026-09-04 15:45:33 Simulator Un-Paused 0 3469
2026-09-04 15:45:35 Aircraft boarding in progress 0 3469
2026-09-04 15:45:35 Navigation Lights ON 0 3469
2026-09-04 15:45:42 Simulator Paused 0 3469
2026-09-04 15:45:42 Simulator Un-Paused 0 3469
2026-09-04 15:46:57 Simulator Paused 0 3469
2026-09-04 15:46:57 Simulator Un-Paused 0 3469
2026-09-04 15:46:57 Landing Lights ON 0 3469
2026-09-04 15:47:03 Simulator Paused 0 3469
2026-09-04 15:47:03 Simulator Un-Paused 0 3469
2026-09-04 15:48:05 Simulator Paused 0 3469
2026-09-04 15:48:11 Simulator Un-Paused 0 3469
2026-09-04 15:54:28 Beacon Lights ON 0 3469
2026-09-04 15:54:53 Starting Engine 2 0 3469
2026-09-04 15:55:04 Simulator Paused 0 3469
2026-09-04 15:55:04 Simulator Un-Paused 0 3469
2026-09-04 15:56:01 Starting Engine 1 0 3469
2026-09-04 15:56:22 Simulator Paused 0 3469
2026-09-04 15:56:22 Simulator Un-Paused 0 3469
2026-09-04 15:56:23 Simulator Paused 0 3469
2026-09-04 15:56:23 Simulator Un-Paused 0 3469
2026-09-04 15:57:13 Simulator Paused 0 3469
2026-09-04 15:57:13 Simulator Un-Paused 0 3469
2026-09-04 15:57:14 FLAPS 12% 0 3469
2026-09-04 15:57:14 FLAPS 0% 0 3469
2026-09-04 15:57:14 FLAPS 12% 0 3469
2026-09-04 15:57:15 FLAPS 25% 0 3469
2026-09-04 15:57:15 FLAPS 0% 0 3469
2026-09-04 15:57:16 FLAPS 25% 0 3469
2026-09-04 15:57:16 FLAPS 0% 0 3469
2026-09-04 15:57:19 FLAPS 12% 0 3469
2026-09-04 15:57:26 FLAPS 25% 0 3469
2026-09-04 15:57:31 FLAPS 37% 0 3469
2026-09-04 15:57:34 Taxi Lights ON 0 3469
2026-09-04 15:57:42 Landing Lights OFF 0 3469
2026-09-04 15:58:51 Aircraft taxiing to runway 2 3469
2026-09-04 16:07:58 FLAPS 50% 26 3471
2026-09-04 16:07:59 FLAPS 37% 26 3471
2026-09-04 16:08:01 FLAPS 50% 24 3471
2026-09-04 16:09:53 Landing Lights ON 0 3477
2026-09-04 16:10:00 Navigation Lights OFF 0 3477
2026-09-04 16:10:01 Navigation Lights ON 0 3477
2026-09-04 16:10:01 Strobe Lights ON 0 3477
2026-09-04 16:11:49 Detected Take-off roll, HDG 113, IAS 174kt, GS 204kt, G-force 1.1g, Pitch -5.6deg, Bank 0.7deg, Wind 320/24kt, Temp 24°C 174 3475
2026-09-04 16:11:49 Airborne 174 3475
2026-09-04 16:11:49 Incorrect altimeter settings on takeoff 174 3475
2026-09-04 16:11:49 Gear DOWN, IAS 174kt, GS 204kt, ALT 11ft AGL 174 3475
2026-09-04 16:12:15 Gear UP, IAS 181kt, GS 194kt, ALT 1745ft AGL 181 5184
2026-09-04 16:12:16 FLAPS 37% 180kt, ALT 5263ft 180 5263
2026-09-04 16:12:16 FLAPS 25% 180kt, ALT 5280ft 180 5280
2026-09-04 16:12:16 FLAPS 50% 180kt, ALT 5286ft 180 5286
2026-09-04 16:12:19 FLAPS 37% 179kt, ALT 5467ft 179 5467
2026-09-04 16:12:23 FLAPS 25% 179kt, ALT 5750ft 179 5750
2026-09-04 16:12:58 FLAPS 12% 206kt, ALT 7159ft 206 7159
2026-09-04 16:12:58 FLAPS 0% 206kt, ALT 7160ft 206 7160
2026-09-04 16:12:58 FLAPS 25% 206kt, ALT 7162ft 206 7162
2026-09-04 16:12:58 FLAPS 0% 206kt, ALT 7164ft 206 7164
2026-09-04 16:12:58 FLAPS 25% 206kt, ALT 7166ft 206 7166
2026-09-04 16:13:01 FLAPS 12% 210kt, ALT 7208ft 210 7208
2026-09-04 16:13:09 FLAPS 0% 220kt, ALT 7339ft 220 7339
2026-09-04 16:14:15 Taxi Lights OFF 248 9377
2026-09-04 16:16:43 Simulator Paused 246 10425
2026-09-04 16:16:44 Simulator Un-Paused 246 10424
2026-09-04 16:16:44 Simulator Paused 246 10424
2026-09-04 16:16:44 Simulator Un-Paused 246 10424
2026-09-04 16:16:44 Simulator Paused 246 10424
2026-09-04 16:16:45 Simulator Un-Paused 247 10424
2026-09-04 16:16:45 Simulator Paused 247 10424
2026-09-04 16:16:45 Simulator Un-Paused 247 10423
2026-09-04 16:16:45 Simulator Paused 247 10423
2026-09-04 16:16:45 Simulator Un-Paused 247 10423
2026-09-04 16:16:59 Simulator Paused 246 10409
2026-09-04 16:16:59 Simulator Un-Paused 246 10409
2026-09-04 16:17:17 Landing Lights OFF 259 10507
2026-09-04 16:27:27 Simulator Paused 290 30385
2026-09-04 16:27:27 Simulator Un-Paused 290 30387
2026-09-04 16:27:27 Simulator Paused 290 30388
2026-09-04 16:27:28 Simulator Un-Paused 290 30391
2026-09-04 16:27:28 Simulator Paused 290 30392
2026-09-04 16:27:28 Simulator Un-Paused 290 30394
2026-09-04 16:27:28 Simulator Paused 290 30394
2026-09-04 16:27:28 Simulator Un-Paused 290 30396
2026-09-04 16:27:29 Simulator Paused 290 30396
2026-09-04 16:27:29 Simulator Un-Paused 290 30397
2026-09-04 16:27:29 Simulator Paused 290 30398
2026-09-04 16:27:29 Simulator Un-Paused 290 30399
2026-09-04 16:27:29 Simulator Paused 290 30400
2026-09-04 16:27:29 Simulator Un-Paused 290 30401
2026-09-04 16:27:29 Simulator Paused 290 30402
2026-09-04 16:27:30 Simulator Un-Paused 290 30403
2026-09-04 16:32:21 Simulator Paused 264 36439
2026-09-04 16:32:22 Simulator Un-Paused 264 36441
2026-09-04 16:35:14 Aircraft on Top Of Climb at 39511ft, IAS 247kt, GS 439kt, HDG 266deg, TAT -50deg, WIND 274/19kt 247 39511
2026-09-04 16:36:06 Simulator Paused 248 39492
2026-09-04 16:36:06 Simulator Un-Paused 248 39492
2026-09-04 16:36:06 Simulator Paused 248 39492
2026-09-04 16:36:06 Simulator Un-Paused 248 39492
2026-09-04 16:36:06 Simulator Paused 248 39492
2026-09-04 16:36:07 Simulator Un-Paused 248 39492
2026-09-04 16:36:07 Simulator Paused 248 39492
2026-09-04 16:36:07 Simulator Un-Paused 248 39492
2026-09-04 16:36:07 Simulator Paused 248 39492
2026-09-04 16:36:07 Simulator Un-Paused 248 39492
2026-09-04 16:36:07 Simulator Paused 248 39492
2026-09-04 16:36:07 Simulator Un-Paused 248 39493
2026-09-04 16:36:08 Simulator Paused 248 39493
2026-09-04 16:36:08 Simulator Un-Paused 248 39493
2026-09-04 16:36:08 Simulator Paused 248 39493
2026-09-04 16:36:08 Simulator Un-Paused 248 39493
2026-09-04 16:36:08 Simulator Paused 248 39493
2026-09-04 16:36:08 Simulator Un-Paused 248 39493
2026-09-04 16:44:08 Simulator Paused 247 39497
2026-09-04 16:44:08 Simulator Un-Paused 247 39497
2026-09-04 16:44:08 Simulator Paused 247 39497
2026-09-04 16:44:08 Simulator Un-Paused 247 39497
2026-09-04 16:44:08 Simulator Paused 247 39497
2026-09-04 16:44:08 Simulator Un-Paused 247 39497
2026-09-04 16:44:09 Simulator Paused 247 39497
2026-09-04 16:44:09 Simulator Un-Paused 247 39497
2026-09-04 16:44:09 Simulator Paused 247 39497
2026-09-04 16:44:09 Simulator Un-Paused 247 39497
2026-09-04 16:44:09 Simulator Paused 247 39497
2026-09-04 16:44:09 Simulator Un-Paused 247 39497
2026-09-04 16:44:09 Simulator Paused 247 39497
2026-09-04 16:44:10 Simulator Un-Paused 247 39497
2026-09-04 16:44:10 Simulator Paused 247 39497
2026-09-04 16:44:10 Simulator Un-Paused 247 39497
2026-09-04 16:44:10 Simulator Paused 247 39497
2026-09-04 16:44:10 Simulator Un-Paused 247 39497
2026-09-04 16:44:10 Simulator Paused 247 39497
2026-09-04 16:44:10 Simulator Un-Paused 247 39497
2026-09-04 16:46:26 Simulator Paused 245 39502
2026-09-04 16:46:26 Simulator Un-Paused 245 39502
2026-09-04 16:52:07 Simulator Paused 246 39486
2026-09-04 16:52:07 Simulator Un-Paused 246 39486
2026-09-04 16:52:07 Simulator Paused 246 39486
2026-09-04 16:52:07 Simulator Un-Paused 246 39486
2026-09-04 16:52:07 Simulator Paused 246 39486
2026-09-04 16:52:08 Simulator Un-Paused 246 39486
2026-09-04 16:52:08 Simulator Paused 246 39486
2026-09-04 16:52:08 Simulator Un-Paused 246 39486
2026-09-04 16:52:08 Simulator Paused 246 39486
2026-09-04 16:52:08 Simulator Un-Paused 246 39487
2026-09-04 16:52:08 Simulator Paused 246 39487
2026-09-04 16:52:09 Simulator Un-Paused 246 39487
2026-09-04 16:52:09 Simulator Paused 246 39487
2026-09-04 16:52:09 Simulator Un-Paused 246 39487
2026-09-04 16:52:09 Simulator Paused 246 39487
2026-09-04 16:52:09 Simulator Un-Paused 246 39487
2026-09-04 16:52:09 Simulator Paused 246 39487
2026-09-04 16:52:09 Simulator Un-Paused 246 39487
2026-09-04 16:52:09 Simulator Paused 246 39487
2026-09-04 16:52:09 Simulator Un-Paused 246 39487
2026-09-04 17:00:03 Simulator Paused 246 39486
2026-09-04 17:00:03 Simulator Un-Paused 246 39486
2026-09-04 17:00:03 Simulator Paused 246 39486
2026-09-04 17:00:04 Simulator Un-Paused 246 39486
2026-09-04 17:00:04 Simulator Paused 246 39486
2026-09-04 17:00:04 Simulator Un-Paused 246 39486
2026-09-04 17:00:04 Simulator Paused 246 39486
2026-09-04 17:00:04 Simulator Un-Paused 246 39486
2026-09-04 17:00:04 Simulator Paused 246 39486
2026-09-04 17:00:04 Simulator Un-Paused 246 39486
2026-09-04 17:00:04 Simulator Paused 246 39486
2026-09-04 17:00:05 Simulator Un-Paused 246 39486
2026-09-04 17:00:05 Simulator Paused 246 39486
2026-09-04 17:00:05 Simulator Un-Paused 246 39486
2026-09-04 17:00:05 Simulator Paused 246 39486
2026-09-04 17:00:05 Simulator Un-Paused 246 39486
2026-09-04 17:00:05 Simulator Paused 246 39486
2026-09-04 17:00:05 Simulator Un-Paused 246 39487
2026-09-04 17:00:05 Simulator Paused 246 39487
2026-09-04 17:00:06 Simulator Un-Paused 246 39487
2026-09-04 17:00:06 Simulator Paused 246 39487
2026-09-04 17:00:06 Simulator Un-Paused 246 39487
2026-09-04 17:07:49 Aircraft on Top Of Descent at 37499ft, IAS 256kt, GS 445kt, HDG 302deg, TAT -45deg, WIND 281/11kt 256 37499
2026-09-04 17:08:02 Simulator Paused 260 36927
2026-09-04 17:08:03 Simulator Un-Paused 260 36925
2026-09-04 17:08:03 Simulator Paused 260 36924
2026-09-04 17:08:03 Simulator Un-Paused 260 36923
2026-09-04 17:08:03 Simulator Paused 260 36921
2026-09-04 17:08:04 Simulator Un-Paused 260 36916
2026-09-04 17:08:04 Simulator Paused 260 36915
2026-09-04 17:08:05 Simulator Un-Paused 260 36913
2026-09-04 17:08:05 Simulator Paused 260 36912
2026-09-04 17:08:05 Simulator Un-Paused 260 36910
2026-09-04 17:08:05 Simulator Paused 260 36909
2026-09-04 17:08:06 Simulator Un-Paused 260 36907
2026-09-04 17:08:06 Simulator Paused 260 36906
2026-09-04 17:08:06 Simulator Un-Paused 260 36906
2026-09-04 17:08:06 Simulator Paused 260 36904
2026-09-04 17:08:07 Simulator Un-Paused 260 36900
2026-09-04 17:08:07 Simulator Paused 260 36898
2026-09-04 17:08:08 Simulator Un-Paused 260 36896
2026-09-04 17:08:08 Simulator Paused 260 36895
2026-09-04 17:08:09 Simulator Un-Paused 260 36890
2026-09-04 17:08:09 Simulator Paused 260 36890
2026-09-04 17:08:09 Simulator Un-Paused 260 36889
2026-09-04 17:17:06 Simulator Paused 257 21178
2026-09-04 17:17:06 Simulator Un-Paused 257 21173
2026-09-04 17:17:06 Simulator Paused 257 21172
2026-09-04 17:17:07 Simulator Un-Paused 257 21169
2026-09-04 17:17:07 Simulator Paused 257 21168
2026-09-04 17:17:07 Simulator Un-Paused 257 21165
2026-09-04 17:17:07 Simulator Paused 257 21164
2026-09-04 17:17:07 Simulator Un-Paused 257 21161
2026-09-04 17:17:07 Simulator Paused 256 21158
2026-09-04 17:17:08 Simulator Un-Paused 256 21156
2026-09-04 17:17:08 Simulator Paused 256 21155
2026-09-04 17:17:08 Simulator Un-Paused 256 21152
2026-09-04 17:25:00 Landing Lights ON 245 9740
2026-09-04 17:25:06 Taxi Lights ON 245 9631
2026-09-04 17:26:19 Simulator Paused 251 8143
2026-09-04 17:26:20 Simulator Un-Paused 251 8140
2026-09-04 17:29:48 Simulator Paused 217 4546
2026-09-04 17:29:48 Simulator Un-Paused 217 4546
2026-09-04 17:29:49 Simulator Paused 217 4545
2026-09-04 17:29:49 Simulator Un-Paused 216 4544
2026-09-04 17:29:49 Simulator Paused 216 4544
2026-09-04 17:29:49 Simulator Un-Paused 216 4542
2026-09-04 17:29:50 Simulator Paused 216 4542
2026-09-04 17:29:50 Simulator Un-Paused 216 4541
2026-09-04 17:29:50 Simulator Paused 216 4540
2026-09-04 17:29:50 Simulator Un-Paused 216 4539
2026-09-04 17:29:55 FLAPS 12% 218kt, ALT 4501ft 218 4501
2026-09-04 17:29:56 FLAPS 0% 218kt, ALT 4500ft 218 4500
2026-09-04 17:30:01 FLAPS 12% 215kt, ALT 4472ft 215 4472
2026-09-04 17:30:01 FLAPS 25% 215kt, ALT 4471ft 215 4471
2026-09-04 17:30:01 FLAPS 12% 215kt, ALT 4471ft 215 4471
2026-09-04 17:30:09 FLAPS 25% 209kt, ALT 4442ft 209 4442
2026-09-04 17:30:24 FLAPS 37% 196kt, ALT 4364ft 196 4364
2026-09-04 17:30:24 FLAPS 25% 196kt, ALT 4362ft 196 4362
2026-09-04 17:30:26 FLAPS 37% 195kt, ALT 4347ft 195 4347
2026-09-04 17:31:03 FLAPS 50% 186kt, ALT 3797ft 186 3797
2026-09-04 17:31:23 Gear DOWN, IAS 177kt, GS 179kt, ALT 2964ft AGL 177 3536
2026-09-04 17:31:41 FLAPS 62% 166kt, ALT 3280ft 166 3280
2026-09-04 17:31:41 FLAPS 50% 166kt, ALT 3277ft 166 3277
2026-09-04 17:31:41 FLAPS 62% 166kt, ALT 3273ft 166 3273
2026-09-04 17:31:42 FLAPS 50% 166kt, ALT 3272ft 166 3272
2026-09-04 17:31:42 FLAPS 62% 166kt, ALT 3266ft 166 3266
2026-09-04 17:31:42 FLAPS 50% 166kt, ALT 3264ft 166 3264
2026-09-04 17:31:43 FLAPS 62% 166kt, ALT 3254ft 166 3254
2026-09-04 17:32:43 FLAPS 75% 148kt, ALT 2270ft 148 2270
2026-09-04 17:32:44 FLAPS 62% 148kt, ALT 2269ft 148 2269
2026-09-04 17:32:45 FLAPS 75% 147kt, ALT 2247ft 147 2247
2026-09-04 17:32:50 FLAPS 87% 143kt, ALT 2213ft 143 2213
2026-09-04 17:32:50 FLAPS 75% 143kt, ALT 2212ft 143 2212
2026-09-04 17:32:50 FLAPS 87% 142kt, ALT 2209ft 142 2209
2026-09-04 17:32:51 FLAPS 75% 142kt, ALT 2209ft 142 2209
2026-09-04 17:32:52 FLAPS 87% 142kt, ALT 2200ft 142 2200
2026-09-04 17:32:52 FLAPS 75% 142kt, ALT 2199ft 142 2199
2026-09-04 17:32:52 FLAPS 87% 142kt, ALT 2198ft 142 2198
2026-09-04 17:33:00 FLAPS 100% 144kt, ALT 2072ft 144 2072
2026-09-04 17:33:01 FLAPS 87% 144kt, ALT 2069ft 144 2069
2026-09-04 17:33:03 FLAPS 100% 144kt, ALT 2026ft 144 2026
2026-09-04 17:34:35 Simulator Paused 143 1030
2026-09-04 17:34:35 Simulator Un-Paused 142 1027
2026-09-04 17:34:37 Simulator Paused 141 966
2026-09-04 17:34:37 Simulator Un-Paused 141 962
2026-09-04 17:34:53 Simulator Paused 139 621
2026-09-04 17:34:53 Simulator Un-Paused 139 620
2026-09-04 17:34:56 Landed at destination with a landing rate of -539fpm, G-force 1.3g, Pitch -3.0deg, Bank -0.7deg, HDG 354deg, IAS 135kt, GS 144kt, Wind 241/10kt, Temp 38°C 135 588
2026-09-04 17:35:15 FLAPS 87% 45 601
2026-09-04 17:35:16 FLAPS 100% 45 601
2026-09-04 17:35:16 FLAPS 25% 45 601
2026-09-04 17:35:16 FLAPS 12% 45 601
2026-09-04 17:35:16 FLAPS 100% 45 601
2026-09-04 17:35:16 FLAPS 0% 45 601
2026-09-04 17:35:16 FLAPS 100% 45 601
2026-09-04 17:35:20 FLAPS 87% 25 602
2026-09-04 17:35:24 Aircraft taxiing to apron 23 603
2026-09-04 17:35:25 FLAPS 75% 16 603
2026-09-04 17:35:29 FLAPS 62% 9 604
2026-09-04 17:35:31 FLAPS 50% 12 604
2026-09-04 17:35:35 FLAPS 37% 15 604
2026-09-04 17:35:39 FLAPS 25% 16 604
2026-09-04 17:35:43 FLAPS 12% 8 604
2026-09-04 17:35:50 FLAPS 0% 13 604
2026-09-04 17:35:57 Strobe Lights OFF 14 604
2026-09-04 17:38:03 Simulator Paused 8 604
2026-09-04 17:38:06 Simulator Un-Paused 8 604
2026-09-04 17:39:57 Aircraft at gate/stand, ground services are moving into position, disembarkation has begun. Remaining FOB 4168kg FLYacars v1.3.6 12 604
viserfly

ACARS DATA

DATE IAS GS ALTITUDE FUEL CONSUMED OAT FLIGHT STATUS
2026-09-04 15:43:02 0 0 3469 0 29 BOARDING
2026-09-04 15:43:32 0 0 3469 0 29 BOARDING
2026-09-04 15:44:02 0 0 3469 0 29 BOARDING
2026-09-04 15:44:32 0 0 3469 0 29 BOARDING
2026-09-04 15:45:02 0 0 3469 0 29 BOARDING
2026-09-04 15:45:32 0 0 3469 0 29 BOARDING
2026-09-04 15:46:02 0 0 3469 0 29 BOARDING
2026-09-04 15:46:32 0 0 3469 1 29 BOARDING
2026-09-04 15:47:02 0 0 3469 1 29 BOARDING
2026-09-04 15:47:32 0 0 3469 2 29 BOARDING
2026-09-04 15:48:02 0 0 3469 3568 29 BOARDING
2026-09-04 15:48:32 0 0 3469 3569 29 BOARDING
2026-09-04 15:49:02 0 0 3469 3569 29 BOARDING
2026-09-04 15:49:32 0 0 3469 3570 29 BOARDING
2026-09-04 15:50:02 0 0 3469 3571 29 BOARDING
2026-09-04 15:50:32 0 0 3469 3571 29 BOARDING
2026-09-04 15:51:02 0 0 3469 3572 29 BOARDING
2026-09-04 15:51:32 0 0 3469 3572 29 BOARDING
2026-09-04 15:52:02 0 0 3469 3573 29 BOARDING
2026-09-04 15:52:32 0 0 3469 3574 29 BOARDING
2026-09-04 15:53:02 0 0 3469 3574 29 BOARDING
2026-09-04 15:53:32 0 0 3469 3575 29 BOARDING
2026-09-04 15:54:02 0 0 3469 3575 29 BOARDING
2026-09-04 15:54:32 0 2 3469 3576 29 PUSHBACK
2026-09-04 15:55:02 0 2 3469 3578 29 PUSHBACK
2026-09-04 15:55:32 0 0 3469 3581 29 PUSHBACK
2026-09-04 15:56:02 0 0 3469 3585 29 PUSHBACK
2026-09-04 15:56:32 0 0 3469 3591 29 PUSHBACK
2026-09-04 15:57:02 0 0 3469 3597 29 PUSHBACK
2026-09-04 15:57:32 0 0 3469 3603 29 PUSHBACK
2026-09-04 15:58:02 0 0 3469 3609 29 PUSHBACK
2026-09-04 15:58:32 0 0 3469 3616 29 PUSHBACK
2026-09-04 15:59:02 0 3 3469 3626 29 TAXI TO RUNWAY
2026-09-04 15:59:32 15 10 3469 3634 29 TAXI TO RUNWAY
2026-09-04 16:00:02 15 10 3469 3640 29 TAXI TO RUNWAY
2026-09-04 16:00:32 7 11 3469 3648 29 TAXI TO RUNWAY
2026-09-04 16:01:02 8 11 3469 3654 29 TAXI TO RUNWAY
2026-09-04 16:01:32 6 11 3469 3660 29 TAXI TO RUNWAY
2026-09-04 16:02:02 6 10 3469 3667 29 TAXI TO RUNWAY
2026-09-04 16:02:32 0 10 3469 3673 24 TAXI TO RUNWAY
2026-09-04 16:03:02 17 9 3469 3679 24 TAXI TO RUNWAY
2026-09-04 16:03:32 17 9 3470 3685 24 TAXI TO RUNWAY
2026-09-04 16:04:02 16 9 3470 3691 24 TAXI TO RUNWAY
2026-09-04 16:04:32 16 9 3470 3697 24 TAXI TO RUNWAY
2026-09-04 16:05:02 18 8 3470 3703 24 TAXI TO RUNWAY
2026-09-04 16:05:32 19 8 3470 3709 24 TAXI TO RUNWAY
2026-09-04 16:06:02 19 8 3470 3715 24 TAXI TO RUNWAY
2026-09-04 16:06:32 21 9 3470 3721 24 TAXI TO RUNWAY
2026-09-04 16:07:02 27 17 3470 3731 24 TAXI TO RUNWAY
2026-09-04 16:07:32 25 20 3470 3739 24 TAXI TO RUNWAY
2026-09-04 16:08:02 25 17 3471 3745 24 TAXI TO RUNWAY
2026-09-04 16:08:32 25 15 3471 3751 24 TAXI TO RUNWAY
2026-09-04 16:09:02 26 14 3472 3757 24 TAXI TO RUNWAY
2026-09-04 16:09:32 6 13 3473 3763 24 TAXI TO RUNWAY
2026-09-04 16:10:02 0 0 3477 3769 24 TAXI TO RUNWAY
2026-09-04 16:10:32 0 0 3477 3775 24 TAXI TO RUNWAY
2026-09-04 16:11:02 0 10 3483 3789 24 TAXI TO RUNWAY
2026-09-04 16:11:32 103 126 3476 3842 24 TAKEOFF
2026-09-04 16:12:02 189 205 4192 3947 25 TAKEOFF
2026-09-04 16:12:32 179 196 6391 4044 19 CLIMB
2026-09-04 16:13:02 212 243 7225 4118 16 CLIMB
2026-09-04 16:13:32 246 282 7908 4182 15 CLIMB
2026-09-04 16:14:02 248 288 9162 4231 11 CLIMB
2026-09-04 16:14:32 248 292 9381 4255 11 ENROUTE
2026-09-04 16:15:02 250 286 9422 4276 11 CLIMB
2026-09-04 16:15:32 247 282 10330 4313 9 CLIMB
2026-09-04 16:16:02 252 288 10394 4335 9 ENROUTE
2026-09-04 16:16:32 247 284 10383 4349 9 ENROUTE
2026-09-04 16:17:02 247 284 10411 4367 9 ENROUTE
2026-09-04 16:17:32 281 326 10732 4416 8 CLIMB
2026-09-04 16:18:02 291 343 12028 4473 5 CLIMB
2026-09-04 16:18:32 288 348 13529 4527 3 CLIMB
2026-09-04 16:19:02 291 357 14906 4579 0 CLIMB
2026-09-04 16:19:32 292 367 16000 4630 -2 CLIMB
2026-09-04 16:20:02 290 372 17399 4680 -4 CLIMB
2026-09-04 16:20:32 290 383 18597 4728 -7 CLIMB
2026-09-04 16:21:02 291 389 19812 4774 -9 CLIMB
2026-09-04 16:21:32 290 393 21067 4819 -10 CLIMB
2026-09-04 16:22:02 290 398 22193 4862 -12 CLIMB
2026-09-04 16:22:32 291 402 23227 4903 -13 CLIMB
2026-09-04 16:23:02 290 405 24274 4945 -15 CLIMB
2026-09-04 16:23:32 290 410 25122 4982 -17 CLIMB
2026-09-04 16:24:02 291 416 25910 5020 -18 CLIMB
2026-09-04 16:24:32 291 421 26654 5057 -20 CLIMB
2026-09-04 16:25:02 290 426 27401 5094 -21 CLIMB
2026-09-04 16:25:32 290 431 28088 5129 -23 CLIMB
2026-09-04 16:26:02 290 435 28748 5164 -24 CLIMB
2026-09-04 16:26:32 290 440 29363 5199 -25 CLIMB
2026-09-04 16:27:02 290 444 29937 5232 -26 CLIMB
2026-09-04 16:27:32 290 448 30451 5265 -27 CLIMB
2026-09-04 16:28:02 290 453 30960 5298 -28 CLIMB
2026-09-04 16:28:32 291 456 31463 5330 -29 CLIMB
2026-09-04 16:29:02 290 459 31950 5361 -31 CLIMB
2026-09-04 16:29:32 289 459 32510 5392 -32 CLIMB
2026-09-04 16:30:02 283 456 33251 5423 -34 CLIMB
2026-09-04 16:30:32 278 451 34067 5453 -36 CLIMB
2026-09-04 16:31:02 274 449 34753 5482 -38 CLIMB
2026-09-04 16:31:32 271 449 35334 5511 -39 CLIMB
2026-09-04 16:32:02 267 446 36024 5539 -41 CLIMB
2026-09-04 16:32:32 263 444 36651 5566 -42 CLIMB
2026-09-04 16:33:02 260 444 37219 5593 -44 CLIMB
2026-09-04 16:33:32 256 442 37802 5619 -45 CLIMB
2026-09-04 16:34:02 254 441 38343 5644 -47 CLIMB
2026-09-04 16:34:32 249 439 38919 5669 -48 CLIMB
2026-09-04 16:35:02 247 439 39355 5693 -49 CLIMB
2026-09-04 16:35:32 249 443 39493 5715 -50 ENROUTE
2026-09-04 16:36:02 249 439 39487 5732 -50 ENROUTE
2026-09-04 16:36:32 245 432 39485 5746 -50 ENROUTE
2026-09-04 16:37:02 244 432 39491 5764 -50 ENROUTE
2026-09-04 16:37:32 244 431 39496 5781 -50 ENROUTE
2026-09-04 16:38:02 245 432 39489 5799 -50 ENROUTE
2026-09-04 16:38:32 245 433 39492 5817 -50 ENROUTE
2026-09-04 16:39:02 245 433 39492 5835 -50 ENROUTE
2026-09-04 16:39:32 245 434 39492 5853 -50 ENROUTE
2026-09-04 16:40:02 245 435 39490 5872 -50 ENROUTE
2026-09-04 16:40:32 246 437 39502 5890 -50 ENROUTE
2026-09-04 16:41:02 247 438 39499 5909 -50 ENROUTE
2026-09-04 16:41:32 247 439 39498 5927 -50 ENROUTE
2026-09-04 16:42:02 248 440 39496 5946 -50 ENROUTE
2026-09-04 16:42:32 248 441 39501 5964 -50 ENROUTE
2026-09-04 16:43:02 248 441 39495 5982 -50 ENROUTE
2026-09-04 16:43:32 248 441 39497 5999 -50 ENROUTE
2026-09-04 16:44:02 248 440 39496 6017 -50 ENROUTE
2026-09-04 16:44:32 247 440 39496 6035 -50 ENROUTE
2026-09-04 16:45:02 247 439 39498 6052 -50 ENROUTE
2026-09-04 16:45:32 245 439 39488 6069 -50 ENROUTE
2026-09-04 16:46:02 245 438 39501 6087 -50 ENROUTE
2026-09-04 16:46:32 245 438 39501 6104 -50 ENROUTE
2026-09-04 16:47:02 245 439 39495 6122 -50 ENROUTE
2026-09-04 16:47:32 246 439 39485 6140 -50 ENROUTE
2026-09-04 16:48:02 246 440 39478 6158 -50 ENROUTE
2026-09-04 16:48:32 246 440 39479 6176 -50 ENROUTE
2026-09-04 16:49:02 246 440 39476 6193 -50 ENROUTE
2026-09-04 16:49:32 246 441 39480 6211 -50 ENROUTE
2026-09-04 16:50:02 247 441 39476 6229 -50 ENROUTE
2026-09-04 16:50:32 247 441 39482 6247 -50 ENROUTE
2026-09-04 16:51:02 245 441 39477 6264 -50 ENROUTE
2026-09-04 16:51:32 245 441 39482 6282 -50 ENROUTE
2026-09-04 16:52:02 246 441 39484 6300 -50 ENROUTE
2026-09-04 16:52:32 246 442 39480 6318 -50 ENROUTE
2026-09-04 16:53:02 246 442 39484 6336 -50 ENROUTE
2026-09-04 16:53:32 247 443 39483 6354 -50 ENROUTE
2026-09-04 16:54:02 247 443 39483 6371 -50 ENROUTE
2026-09-04 16:54:32 247 443 39476 6389 -50 ENROUTE
2026-09-04 16:55:02 247 443 39482 6407 -50 ENROUTE
2026-09-04 16:55:32 246 443 39482 6424 -50 ENROUTE
2026-09-04 16:56:02 246 443 39487 6442 -50 ENROUTE
2026-09-04 16:56:32 246 442 39484 6460 -50 ENROUTE
2026-09-04 16:57:02 245 443 39481 6477 -50 ENROUTE
2026-09-04 16:57:32 245 443 39486 6495 -50 ENROUTE
2026-09-04 16:58:02 246 443 39486 6513 -50 ENROUTE
2026-09-04 16:58:32 246 443 39485 6530 -50 ENROUTE
2026-09-04 16:59:02 246 443 39487 6548 -50 ENROUTE
2026-09-04 16:59:32 246 444 39485 6566 -50 ENROUTE
2026-09-04 17:00:02 246 444 39486 6583 -50 ENROUTE
2026-09-04 17:00:32 246 444 39491 6601 -50 ENROUTE
2026-09-04 17:01:02 246 444 39491 6619 -50 ENROUTE
2026-09-04 17:01:32 246 444 39487 6636 -50 ENROUTE
2026-09-04 17:02:02 246 444 39487 6654 -50 ENROUTE
2026-09-04 17:02:32 247 444 39481 6671 -50 ENROUTE
2026-09-04 17:03:02 246 443 39485 6689 -50 ENROUTE
2026-09-04 17:03:32 246 443 39482 6706 -50 ENROUTE
2026-09-04 17:04:02 245 443 39484 6724 -50 ENROUTE
2026-09-04 17:04:32 246 443 39493 6741 -50 ENROUTE
2026-09-04 17:05:02 245 443 39485 6759 -50 ENROUTE
2026-09-04 17:05:32 245 443 39487 6776 -50 ENROUTE
2026-09-04 17:06:02 246 443 39489 6794 -50 ENROUTE
2026-09-04 17:06:32 246 443 39479 6812 -50 ENROUTE
2026-09-04 17:07:02 251 449 39185 6828 -49 DESCENT
2026-09-04 17:07:32 254 446 38164 6836 -47 DESCENT
2026-09-04 17:08:02 260 446 36932 6843 -44 DESCENT
2026-09-04 17:08:32 259 441 36149 6850 -42 DESCENT
2026-09-04 17:09:02 260 435 35180 6858 -39 DESCENT
2026-09-04 17:09:32 260 429 34257 6865 -37 DESCENT
2026-09-04 17:10:02 258 422 33373 6873 -35 DESCENT
2026-09-04 17:10:32 258 416 32481 6881 -32 DESCENT
2026-09-04 17:11:02 258 411 31574 6888 -30 DESCENT
2026-09-04 17:11:32 258 406 30663 6896 -28 DESCENT
2026-09-04 17:12:02 258 400 29803 6904 -26 DESCENT
2026-09-04 17:12:32 257 393 28961 6912 -25 DESCENT
2026-09-04 17:13:02 257 387 28112 6919 -23 DESCENT
2026-09-04 17:13:32 257 382 27260 6927 -22 DESCENT
2026-09-04 17:14:02 258 377 26390 6935 -20 DESCENT
2026-09-04 17:14:32 260 374 25462 6943 -18 DESCENT
2026-09-04 17:15:02 259 372 24533 6950 -16 DESCENT
2026-09-04 17:15:32 259 368 23668 6958 -15 DESCENT
2026-09-04 17:16:02 261 362 22873 6966 -13 DESCENT
2026-09-04 17:16:32 260 357 22076 6973 -12 DESCENT
2026-09-04 17:17:02 258 353 21276 6981 -10 DESCENT
2026-09-04 17:17:32 256 349 20495 6989 -9 DESCENT
2026-09-04 17:18:02 259 347 19657 6997 -7 DESCENT
2026-09-04 17:18:32 259 345 18790 7004 -5 DESCENT
2026-09-04 17:19:02 259 341 18004 7012 -4 DESCENT
2026-09-04 17:19:32 261 337 17251 7020 -3 DESCENT
2026-09-04 17:20:02 261 332 16491 7027 -1 DESCENT
2026-09-04 17:20:32 259 327 15740 7035 0 DESCENT
2026-09-04 17:21:02 261 324 14973 7043 1 DESCENT
2026-09-04 17:21:32 261 322 14181 7051 2 DESCENT
2026-09-04 17:22:02 260 319 13421 7058 4 DESCENT
2026-09-04 17:22:32 260 316 12689 7066 5 DESCENT
2026-09-04 17:23:02 260 313 11945 7074 7 DESCENT
2026-09-04 17:23:32 262 311 11200 7081 8 DESCENT
2026-09-04 17:24:02 256 303 10612 7089 9 DESCENT
2026-09-04 17:24:32 245 287 10315 7097 10 DESCENT
2026-09-04 17:25:02 245 285 9695 7104 11 DESCENT
2026-09-04 17:25:32 248 282 9095 7112 13 DESCENT
2026-09-04 17:26:02 246 279 8475 7120 14 DESCENT
2026-09-04 17:26:32 251 278 7880 7128 15 DESCENT
2026-09-04 17:27:02 251 276 7234 7135 17 DESCENT
2026-09-04 17:27:32 250 274 6591 7143 18 DESCENT
2026-09-04 17:28:02 250 270 5978 7151 20 DESCENT
2026-09-04 17:28:32 245 265 5370 7158 22 DESCENT
2026-09-04 17:29:02 246 259 4825 7166 24 DESCENT
2026-09-04 17:29:32 232 242 4577 7174 24 ENROUTE
2026-09-04 17:30:02 215 223 4468 7182 25 ENROUTE
2026-09-04 17:30:32 193 203 4261 7190 25 DESCENT
2026-09-04 17:31:02 186 189 3814 7197 27 DESCENT
2026-09-04 17:31:32 172 174 3404 7205 28 DESCENT
2026-09-04 17:32:02 155 160 2950 7214 29 APPROACH
2026-09-04 17:32:32 156 157 2451 7228 31 APPROACH
2026-09-04 17:33:02 144 146 2043 7239 32 APPROACH
2026-09-04 17:33:32 139 139 1678 7260 33 APPROACH
2026-09-04 17:34:02 135 134 1255 7282 36 ON FINAL
2026-09-04 17:34:32 145 157 1071 7333 37 ON FINAL
2026-09-04 17:35:02 124 131 594 7344 38 ON FINAL
2026-09-04 17:35:32 13 8 604 7350 38 TAXI TO APRON
2026-09-04 17:36:02 10 1 604 7356 38 TAXI TO APRON
2026-09-04 17:36:32 16 5 603 7363 38 TAXI TO APRON
2026-09-04 17:37:02 19 6 604 7373 38 TAXI TO APRON
2026-09-04 17:37:32 12 0 604 7379 38 TAXI TO APRON
2026-09-04 17:38:02 8 0 604 7386 38 TAXI TO APRON
2026-09-04 17:38:32 8 0 604 7391 38 TAXI TO APRON
2026-09-04 17:39:02 12 0 604 7397 38 TAXI TO APRON
2026-09-04 17:39:32 14 2 604 7404 38 TAXI TO APRON
  • Join our VA!

    It has been 11 years of great learning, friendships, and stories.

  • Sign up now!